sensor_id;sensor_type;location;lat;lon;timestamp;pressure;altitude;pressure_sealevel;temperature;humidity
42289;BME280;30230;47.520;19.016;2023-03-14T00:01:27;98288.22;;;8.09;52.08
42289;BME280;30230;47.520;19.016;2023-03-14T00:03:28;98282.22;;;8.01;52.14
42289;BME280;30230;47.520;19.016;2023-03-14T00:05:29;98283.50;;;7.98;52.59
42289;BME280;30230;47.520;19.016;2023-03-14T00:07:29;98288.47;;;7.95;52.64
42289;BME280;30230;47.520;19.016;2023-03-14T00:09:33;98269.28;;;7.78;53.09
42289;BME280;30230;47.520;19.016;2023-03-14T00:11:34;98275.03;;;8.01;52.60
42289;BME280;30230;47.520;19.016;2023-03-14T00:13:34;98272.75;;;7.85;52.85
42289;BME280;30230;47.520;19.016;2023-03-14T00:15:35;98276.09;;;7.87;52.95
42289;BME280;30230;47.520;19.016;2023-03-14T00:17:36;98266.56;;;7.84;53.27
42289;BME280;30230;47.520;19.016;2023-03-14T00:19:36;98259.53;;;7.97;52.83
42289;BME280;30230;47.520;19.016;2023-03-14T00:21:37;98266.09;;;8.07;53.00
42289;BME280;30230;47.520;19.016;2023-03-14T00:23:39;98268.22;;;7.92;52.75
42289;BME280;30230;47.520;19.016;2023-03-14T00:25:39;98263.22;;;7.96;52.85
42289;BME280;30230;47.520;19.016;2023-03-14T00:27:40;98257.81;;;8.09;52.55
42289;BME280;30230;47.520;19.016;2023-03-14T00:29:42;98253.69;;;8.06;52.55
42289;BME280;30230;47.520;19.016;2023-03-14T00:31:43;98231.13;;;8.01;52.29
42289;BME280;30230;47.520;19.016;2023-03-14T00:33:44;98231.81;;;7.90;53.02
42289;BME280;30230;47.520;19.016;2023-03-14T00:35:59;98233.81;;;8.07;52.61
42289;BME280;30230;47.520;19.016;2023-03-14T00:38:00;98228.06;;;7.97;52.61
42289;BME280;30230;47.520;19.016;2023-03-14T00:40:00;98221.88;;;7.90;53.01
42289;BME280;30230;47.520;19.016;2023-03-14T00:42:01;98224.75;;;7.95;52.74
42289;BME280;30230;47.520;19.016;2023-03-14T00:44:01;98225.19;;;7.92;53.22
42289;BME280;30230;47.520;19.016;2023-03-14T00:46:02;98227.00;;;8.05;53.04
42289;BME280;30230;47.520;19.016;2023-03-14T00:48:03;98224.75;;;7.95;53.22
42289;BME280;30230;47.520;19.016;2023-03-14T00:50:04;98217.31;;;7.97;52.74
42289;BME280;30230;47.520;19.016;2023-03-14T00:52:04;98212.53;;;7.99;52.85
42289;BME280;30230;47.520;19.016;2023-03-14T00:54:05;98207.38;;;7.98;52.86
42289;BME280;30230;47.520;19.016;2023-03-14T00:56:07;98211.13;;;7.97;53.04
42289;BME280;30230;47.520;19.016;2023-03-14T00:58:09;98212.59;;;7.86;53.17
42289;BME280;30230;47.520;19.016;2023-03-14T01:00:10;98209.91;;;7.86;52.97
42289;BME280;30230;47.520;19.016;2023-03-14T01:02:12;98201.00;;;7.86;53.24
42289;BME280;30230;47.520;19.016;2023-03-14T01:04:12;98195.63;;;7.92;53.77
42289;BME280;30230;47.520;19.016;2023-03-14T01:06:16;98195.66;;;7.79;53.65
42289;BME280;30230;47.520;19.016;2023-03-14T01:08:17;98202.63;;;7.93;53.59
42289;BME280;30230;47.520;19.016;2023-03-14T01:10:17;98200.66;;;7.69;54.11
42289;BME280;30230;47.520;19.016;2023-03-14T01:12:18;98197.94;;;7.69;53.83
42289;BME280;30230;47.520;19.016;2023-03-14T01:14:18;98189.03;;;7.75;53.82
42289;BME280;30230;47.520;19.016;2023-03-14T01:16:19;98196.09;;;7.76;53.85
42289;BME280;30230;47.520;19.016;2023-03-14T01:18:20;98184.88;;;7.86;54.06
42289;BME280;30230;47.520;19.016;2023-03-14T01:20:21;98179.53;;;7.79;53.76
42289;BME280;30230;47.520;19.016;2023-03-14T01:22:21;98177.66;;;7.86;54.07
42289;BME280;30230;47.520;19.016;2023-03-14T01:24:22;98172.50;;;7.78;54.34
42289;BME280;30230;47.520;19.016;2023-03-14T01:26:25;98153.34;;;7.61;54.35
42289;BME280;30230;47.520;19.016;2023-03-14T01:28:26;98163.66;;;7.71;54.71
42289;BME280;30230;47.520;19.016;2023-03-14T01:30:26;98154.16;;;7.62;54.69
42289;BME280;30230;47.520;19.016;2023-03-14T01:32:27;98141.78;;;7.47;55.17
42289;BME280;30230;47.520;19.016;2023-03-14T01:34:27;98138.84;;;7.62;54.66
42289;BME280;30230;47.520;19.016;2023-03-14T01:36:27;98144.25;;;7.55;55.12
42289;BME280;30230;47.520;19.016;2023-03-14T01:38:29;98149.66;;;7.42;56.03
42289;BME280;30230;47.520;19.016;2023-03-14T01:40:29;98145.16;;;7.29;56.32
42289;BME280;30230;47.520;19.016;2023-03-14T01:42:30;98151.75;;;7.40;55.97
42289;BME280;30230;47.520;19.016;2023-03-14T01:47:07;98138.31;;;7.40;55.67
42289;BME280;30230;47.520;19.016;2023-03-14T01:49:29;98125.91;;;7.32;56.50
42289;BME280;30230;47.520;19.016;2023-03-14T01:51:42;98128.81;;;7.44;56.02
42289;BME280;30230;47.520;19.016;2023-03-14T01:53:44;98116.13;;;7.58;55.35
42289;BME280;30230;47.520;19.016;2023-03-14T01:55:45;98103.00;;;7.30;55.85
42289;BME280;30230;47.520;19.016;2023-03-14T01:57:51;98115.41;;;7.31;55.75
42289;BME280;30230;47.520;19.016;2023-03-14T02:00:14;98112.91;;;7.36;55.79
42289;BME280;30230;47.520;19.016;2023-03-14T02:02:15;98120.34;;;7.41;55.81
42289;BME280;30230;47.520;19.016;2023-03-14T02:04:17;98117.00;;;7.39;55.74
42289;BME280;30230;47.520;19.016;2023-03-14T02:06:26;98112.84;;;7.49;55.82
42289;BME280;30230;47.520;19.016;2023-03-14T02:08:28;98095.53;;;7.45;55.46
42289;BME280;30230;47.520;19.016;2023-03-14T02:10:35;98095.53;;;7.39;55.86
42289;BME280;30230;47.520;19.016;2023-03-14T02:12:37;98092.66;;;7.34;56.16
42289;BME280;30230;47.520;19.016;2023-03-14T02:14:39;98076.25;;;7.55;55.19
42289;BME280;30230;47.520;19.016;2023-03-14T02:16:41;98077.34;;;7.41;55.60
42289;BME280;30230;47.520;19.016;2023-03-14T02:18:41;98079.78;;;7.49;55.90
42289;BME280;30230;47.520;19.016;2023-03-14T02:22:44;98071.13;;;7.47;56.22
42289;BME280;30230;47.520;19.016;2023-03-14T02:25:48;98064.59;;;7.29;56.40
42289;BME280;30230;47.520;19.016;2023-03-14T02:27:29;98053.81;;;7.36;56.34
42289;BME280;30230;47.520;19.016;2023-03-14T02:29:31;98063.75;;;7.29;57.13
42289;BME280;30230;47.520;19.016;2023-03-14T02:31:33;98059.19;;;7.36;56.61
42289;BME280;30230;47.520;19.016;2023-03-14T02:33:35;98059.84;;;7.25;57.08
42289;BME280;30230;47.520;19.016;2023-03-14T02:35:40;98054.50;;;7.12;57.46
42289;BME280;30230;47.520;19.016;2023-03-14T02:39:44;98046.03;;;7.15;57.61
42289;BME280;30230;47.520;19.016;2023-03-14T02:41:45;98064.38;;;7.31;57.39
42289;BME280;30230;47.520;19.016;2023-03-14T02:43:46;98055.50;;;7.24;57.85
42289;BME280;30230;47.520;19.016;2023-03-14T02:45:47;98051.78;;;7.25;57.56
42289;BME280;30230;47.520;19.016;2023-03-14T02:47:54;98057.59;;;7.15;57.71
42289;BME280;30230;47.520;19.016;2023-03-14T02:50:02;98048.91;;;7.20;58.15
42289;BME280;30230;47.520;19.016;2023-03-14T02:52:04;98052.63;;;7.19;57.92
42289;BME280;30230;47.520;19.016;2023-03-14T02:54:04;98036.50;;;7.25;57.83
42289;BME280;30230;47.520;19.016;2023-03-14T02:56:05;98025.75;;;7.25;58.47
42289;BME280;30230;47.520;19.016;2023-03-14T02:58:05;98025.72;;;7.32;58.42
42289;BME280;30230;47.520;19.016;2023-03-14T03:00:07;98010.09;;;7.16;58.54
42289;BME280;30230;47.520;19.016;2023-03-14T03:02:08;98007.19;;;7.17;58.32
42289;BME280;30230;47.520;19.016;2023-03-14T03:04:08;98002.00;;;7.29;58.10
42289;BME280;30230;47.520;19.016;2023-03-14T03:06:09;98017.28;;;7.22;58.61
42289;BME280;30230;47.520;19.016;2023-03-14T03:08:10;98012.59;;;7.11;59.14
42289;BME280;30230;47.520;19.016;2023-03-14T03:10:10;98017.53;;;7.14;58.99
42289;BME280;30230;47.520;19.016;2023-03-14T03:12:11;98004.56;;;6.97;59.96
42289;BME280;30230;47.520;19.016;2023-03-14T03:14:11;98010.75;;;7.04;59.63
42289;BME280;30230;47.520;19.016;2023-03-14T03:16:12;98016.69;;;7.13;59.66
42289;BME280;30230;47.520;19.016;2023-03-14T03:18:13;98005.34;;;7.11;59.79
42289;BME280;30230;47.520;19.016;2023-03-14T03:20:14;98011.31;;;7.20;59.56
42289;BME280;30230;47.520;19.016;2023-03-14T03:22:14;98011.91;;;7.22;59.46
42289;BME280;30230;47.520;19.016;2023-03-14T03:24:15;98006.09;;;7.31;59.51
42289;BME280;30230;47.520;19.016;2023-03-14T03:26:15;97999.31;;;7.29;59.75
42289;BME280;30230;47.520;19.016;2023-03-14T03:28:16;97996.78;;;7.34;59.82
42289;BME280;30230;47.520;19.016;2023-03-14T03:30:16;97994.75;;;7.29;59.59
42289;BME280;30230;47.520;19.016;2023-03-14T03:32:17;97996.63;;;7.22;59.35
42289;BME280;30230;47.520;19.016;2023-03-14T03:34:17;98002.22;;;7.21;59.96
42289;BME280;30230;47.520;19.016;2023-03-14T03:36:25;98000.16;;;7.16;60.36
42289;BME280;30230;47.520;19.016;2023-03-14T03:38:26;98004.31;;;7.12;60.10
42289;BME280;30230;47.520;19.016;2023-03-14T03:40:26;98010.72;;;7.11;60.71
42289;BME280;30230;47.520;19.016;2023-03-14T03:42:27;98003.94;;;7.09;60.70
42289;BME280;30230;47.520;19.016;2023-03-14T03:44:27;98003.00;;;7.35;59.99
42289;BME280;30230;47.520;19.016;2023-03-14T03:46:28;97996.00;;;7.27;59.96
42289;BME280;30230;47.520;19.016;2023-03-14T03:48:28;97983.41;;;7.21;60.07
42289;BME280;30230;47.520;19.016;2023-03-14T03:50:29;97991.28;;;7.16;60.28
42289;BME280;30230;47.520;19.016;2023-03-14T03:52:29;97983.66;;;7.13;60.93
42289;BME280;30230;47.520;19.016;2023-03-14T03:54:29;98000.00;;;7.04;61.00
42289;BME280;30230;47.520;19.016;2023-03-14T03:56:30;97999.81;;;6.99;61.29
42289;BME280;30230;47.520;19.016;2023-03-14T03:58:31;97998.19;;;6.98;61.24
42289;BME280;30230;47.520;19.016;2023-03-14T04:00:32;97996.06;;;7.07;61.25
42289;BME280;30230;47.520;19.016;2023-03-14T04:02:33;97997.75;;;7.01;61.39
42289;BME280;30230;47.520;19.016;2023-03-14T04:04:33;97986.22;;;6.94;61.81
42289;BME280;30230;47.520;19.016;2023-03-14T04:06:34;97999.00;;;6.92;62.23
42289;BME280;30230;47.520;19.016;2023-03-14T04:08:34;97982.28;;;6.90;61.90
42289;BME280;30230;47.520;19.016;2023-03-14T04:10:36;97980.44;;;6.91;62.19
42289;BME280;30230;47.520;19.016;2023-03-14T04:12:36;97973.41;;;6.90;62.36
42289;BME280;30230;47.520;19.016;2023-03-14T04:14:37;97973.00;;;6.93;62.10
42289;BME280;30230;47.520;19.016;2023-03-14T04:16:37;97966.78;;;6.99;62.12
42289;BME280;30230;47.520;19.016;2023-03-14T04:18:37;97983.34;;;6.89;62.62
42289;BME280;30230;47.520;19.016;2023-03-14T04:20:38;97986.22;;;6.94;62.04
42289;BME280;30230;47.520;19.016;2023-03-14T04:22:39;97988.94;;;6.88;62.92
42289;BME280;30230;47.520;19.016;2023-03-14T04:24:39;97980.84;;;6.94;62.72
42289;BME280;30230;47.520;19.016;2023-03-14T04:26:40;97988.69;;;6.96;62.20
42289;BME280;30230;47.520;19.016;2023-03-14T04:28:40;97973.38;;;6.96;62.23
42289;BME280;30230;47.520;19.016;2023-03-14T04:30:40;97964.69;;;7.01;62.44
42289;BME280;30230;47.520;19.016;2023-03-14T04:32:41;97977.03;;;7.15;61.83
42289;BME280;30230;47.520;19.016;2023-03-14T04:34:41;97956.78;;;7.13;61.89
42289;BME280;30230;47.520;19.016;2023-03-14T04:36:42;97952.47;;;7.12;62.17
42289;BME280;30230;47.520;19.016;2023-03-14T04:38:42;97970.03;;;7.08;62.88
42289;BME280;30230;47.520;19.016;2023-03-14T04:40:43;97972.50;;;7.16;61.97
42289;BME280;30230;47.520;19.016;2023-03-14T04:42:44;97970.22;;;7.13;62.35
42289;BME280;30230;47.520;19.016;2023-03-14T04:44:44;97968.91;;;7.35;61.74
42289;BME280;30230;47.520;19.016;2023-03-14T04:46:46;97955.81;;;7.45;61.15
42289;BME280;30230;47.520;19.016;2023-03-14T04:48:47;97964.06;;;7.44;60.98
42289;BME280;30230;47.520;19.016;2023-03-14T04:50:47;97965.69;;;7.51;60.80
42289;BME280;30230;47.520;19.016;2023-03-14T04:52:48;97967.13;;;7.54;60.86
42289;BME280;30230;47.520;19.016;2023-03-14T04:54:49;97967.34;;;7.52;60.72
42289;BME280;30230;47.520;19.016;2023-03-14T04:56:49;97972.50;;;7.54;60.62
42289;BME280;30230;47.520;19.016;2023-03-14T04:58:49;97969.38;;;7.57;60.74
42289;BME280;30230;47.520;19.016;2023-03-14T05:00:50;97968.38;;;7.51;60.81
42289;BME280;30230;47.520;19.016;2023-03-14T05:02:50;97965.53;;;7.46;61.04
42289;BME280;30230;47.520;19.016;2023-03-14T05:04:51;97958.31;;;7.40;61.11
42289;BME280;30230;47.520;19.016;2023-03-14T05:06:51;97972.13;;;7.50;61.32
42289;BME280;30230;47.520;19.016;2023-03-14T05:08:52;97961.53;;;7.55;60.45
42289;BME280;30230;47.520;19.016;2023-03-14T05:10:56;97943.75;;;7.54;60.82
42289;BME280;30230;47.520;19.016;2023-03-14T05:12:57;97944.66;;;7.42;61.09
42289;BME280;30230;47.520;19.016;2023-03-14T05:14:57;97948.94;;;7.49;60.78
42289;BME280;30230;47.520;19.016;2023-03-14T05:16:57;97953.47;;;7.55;61.15
42289;BME280;30230;47.520;19.016;2023-03-14T05:18:58;97959.44;;;7.57;60.91
42289;BME280;30230;47.520;19.016;2023-03-14T05:20:58;97937.13;;;7.57;60.10
42289;BME280;30230;47.520;19.016;2023-03-14T05:22:59;97936.72;;;7.60;60.66
42289;BME280;30230;47.520;19.016;2023-03-14T05:24:59;97940.22;;;7.61;60.24
42289;BME280;30230;47.520;19.016;2023-03-14T05:27:00;97933.63;;;7.56;60.22
42289;BME280;30230;47.520;19.016;2023-03-14T05:29:00;97914.69;;;7.45;60.65
42289;BME280;30230;47.520;19.016;2023-03-14T05:31:06;97944.28;;;7.70;60.04
42289;BME280;30230;47.520;19.016;2023-03-14T05:33:07;97940.06;;;7.55;59.94
42289;BME280;30230;47.520;19.016;2023-03-14T05:35:07;97944.16;;;7.58;59.62
42289;BME280;30230;47.520;19.016;2023-03-14T05:37:08;97949.47;;;7.65;60.12
42289;BME280;30230;47.520;19.016;2023-03-14T05:39:08;97926.97;;;7.59;59.81
42289;BME280;30230;47.520;19.016;2023-03-14T05:41:09;97921.00;;;7.57;59.83
42289;BME280;30230;47.520;19.016;2023-03-14T05:43:09;97938.53;;;7.66;59.85
42289;BME280;30230;47.520;19.016;2023-03-14T05:45:10;97940.09;;;7.80;59.25
42289;BME280;30230;47.520;19.016;2023-03-14T05:47:11;97929.94;;;7.82;59.35
42289;BME280;30230;47.520;19.016;2023-03-14T05:49:11;97937.59;;;7.79;59.35
42289;BME280;30230;47.520;19.016;2023-03-14T05:51:11;97915.72;;;7.75;58.79
42289;BME280;30230;47.520;19.016;2023-03-14T05:53:12;97922.94;;;7.75;58.95
42289;BME280;30230;47.520;19.016;2023-03-14T05:55:12;97922.63;;;7.90;58.78
42289;BME280;30230;47.520;19.016;2023-03-14T05:57:13;97927.50;;;7.99;58.57
42289;BME280;30230;47.520;19.016;2023-03-14T05:59:13;97916.00;;;7.92;58.17
42289;BME280;30230;47.520;19.016;2023-03-14T06:01:15;97928.88;;;8.08;58.11
42289;BME280;30230;47.520;19.016;2023-03-14T06:03:15;97931.31;;;8.17;57.76
42289;BME280;30230;47.520;19.016;2023-03-14T06:05:15;97934.44;;;8.14;58.04
42289;BME280;30230;47.520;19.016;2023-03-14T06:07:16;97925.63;;;8.25;57.37
42289;BME280;30230;47.520;19.016;2023-03-14T06:09:16;97937.81;;;8.27;57.05
42289;BME280;30230;47.520;19.016;2023-03-14T06:11:19;97941.03;;;8.43;56.76
42289;BME280;30230;47.520;19.016;2023-03-14T06:13:21;97936.38;;;8.50;56.73
42289;BME280;30230;47.520;19.016;2023-03-14T06:15:21;97942.16;;;8.53;56.46
42289;BME280;30230;47.520;19.016;2023-03-14T06:17:22;97920.66;;;8.47;56.73
42289;BME280;30230;47.520;19.016;2023-03-14T06:19:22;97926.00;;;8.53;55.83
42289;BME280;30230;47.520;19.016;2023-03-14T06:21:23;97925.69;;;8.61;56.36
42289;BME280;30230;47.520;19.016;2023-03-14T06:23:24;97922.56;;;8.65;56.53
42289;BME280;30230;47.520;19.016;2023-03-14T06:25:25;97922.50;;;8.71;56.09
42289;BME280;30230;47.520;19.016;2023-03-14T06:27:25;97921.22;;;8.74;55.91
42289;BME280;30230;47.520;19.016;2023-03-14T06:29:26;97922.09;;;8.68;56.06
42289;BME280;30230;47.520;19.016;2023-03-14T06:31:26;97933.03;;;8.91;55.51
42289;BME280;30230;47.520;19.016;2023-03-14T06:33:28;97938.13;;;8.81;55.68
42289;BME280;30230;47.520;19.016;2023-03-14T06:35:28;97932.28;;;8.84;55.38
42289;BME280;30230;47.520;19.016;2023-03-14T06:37:29;97930.44;;;8.84;55.78
42289;BME280;30230;47.520;19.016;2023-03-14T06:39:30;97935.19;;;8.82;55.60
42289;BME280;30230;47.520;19.016;2023-03-14T06:41:31;97945.06;;;8.88;55.18
42289;BME280;30230;47.520;19.016;2023-03-14T06:43:33;97933.13;;;8.84;55.42
42289;BME280;30230;47.520;19.016;2023-03-14T06:45:33;97934.56;;;8.99;54.99
42289;BME280;30230;47.520;19.016;2023-03-14T06:47:33;97942.22;;;9.02;54.80
42289;BME280;30230;47.520;19.016;2023-03-14T06:49:34;97943.47;;;8.99;55.14
42289;BME280;30230;47.520;19.016;2023-03-14T06:51:34;97941.63;;;9.00;54.91
42289;BME280;30230;47.520;19.016;2023-03-14T06:53:35;97946.03;;;9.12;54.64
42289;BME280;30230;47.520;19.016;2023-03-14T06:55:35;97936.06;;;9.13;54.95
42289;BME280;30230;47.520;19.016;2023-03-14T06:57:36;97936.97;;;9.07;54.86
42289;BME280;30230;47.520;19.016;2023-03-14T06:59:36;97929.44;;;8.97;55.07
42289;BME280;30230;47.520;19.016;2023-03-14T07:01:37;97934.06;;;9.08;54.80
42289;BME280;30230;47.520;19.016;2023-03-14T07:03:37;97940.63;;;9.12;54.92
42289;BME280;30230;47.520;19.016;2023-03-14T07:05:37;97933.97;;;9.15;54.95
42289;BME280;30230;47.520;19.016;2023-03-14T07:07:40;97935.38;;;9.18;55.01
42289;BME280;30230;47.520;19.016;2023-03-14T07:09:40;97928.50;;;9.22;54.79
42289;BME280;30230;47.520;19.016;2023-03-14T07:11:41;97919.94;;;9.25;54.86
42289;BME280;30230;47.520;19.016;2023-03-14T07:13:41;97918.31;;;9.24;54.78
42289;BME280;30230;47.520;19.016;2023-03-14T07:15:42;97910.75;;;9.14;55.00
42289;BME280;30230;47.520;19.016;2023-03-14T07:17:42;97920.84;;;9.37;54.41
42289;BME280;30230;47.520;19.016;2023-03-14T07:19:43;97931.75;;;9.42;54.50
42289;BME280;30230;47.520;19.016;2023-03-14T07:21:43;97923.66;;;9.42;54.79
42289;BME280;30230;47.520;19.016;2023-03-14T07:23:43;97926.50;;;9.47;54.04
42289;BME280;30230;47.520;19.016;2023-03-14T07:25:44;97928.13;;;9.48;54.51
42289;BME280;30230;47.520;19.016;2023-03-14T07:27:45;97928.84;;;9.55;54.51
42289;BME280;30230;47.520;19.016;2023-03-14T07:29:45;97918.19;;;9.60;54.08
42289;BME280;30230;47.520;19.016;2023-03-14T07:31:46;97925.03;;;9.63;54.12
42289;BME280;30230;47.520;19.016;2023-03-14T07:33:46;97914.38;;;9.80;54.23
42289;BME280;30230;47.520;19.016;2023-03-14T07:35:48;97912.69;;;10.09;53.48
42289;BME280;30230;47.520;19.016;2023-03-14T07:37:48;97914.94;;;10.24;53.06
42289;BME280;30230;47.520;19.016;2023-03-14T07:39:49;97916.69;;;10.30;52.07
42289;BME280;30230;47.520;19.016;2023-03-14T07:41:49;97918.69;;;10.46;52.20
42289;BME280;30230;47.520;19.016;2023-03-14T07:43:50;97888.19;;;10.34;51.94
42289;BME280;30230;47.520;19.016;2023-03-14T07:45:50;97897.09;;;10.46;52.11
42289;BME280;30230;47.520;19.016;2023-03-14T07:47:51;97896.84;;;10.48;52.06
42289;BME280;30230;47.520;19.016;2023-03-14T07:49:51;97900.97;;;10.50;52.58
42289;BME280;30230;47.520;19.016;2023-03-14T07:51:51;97898.94;;;10.57;51.90
42289;BME280;30230;47.520;19.016;2023-03-14T07:53:52;97902.81;;;10.61;52.16
42289;BME280;30230;47.520;19.016;2023-03-14T07:55:52;97894.34;;;10.81;52.27
42289;BME280;30230;47.520;19.016;2023-03-14T07:57:53;97889.25;;;10.85;51.69
42289;BME280;30230;47.520;19.016;2023-03-14T07:59:53;97880.06;;;10.98;50.93
42289;BME280;30230;47.520;19.016;2023-03-14T08:01:54;97884.88;;;10.95;51.50
42289;BME280;30230;47.520;19.016;2023-03-14T08:03:54;97891.66;;;11.10;51.14
42289;BME280;30230;47.520;19.016;2023-03-14T08:05:54;97880.84;;;11.10;51.61
42289;BME280;30230;47.520;19.016;2023-03-14T08:07:55;97875.13;;;11.06;50.72
42289;BME280;30230;47.520;19.016;2023-03-14T08:09:55;97873.28;;;11.24;50.62
42289;BME280;30230;47.520;19.016;2023-03-14T08:11:56;97879.84;;;11.28;50.04
42289;BME280;30230;47.520;19.016;2023-03-14T08:13:56;97864.81;;;11.20;50.69
42289;BME280;30230;47.520;19.016;2023-03-14T08:15:57;97867.09;;;11.40;51.10
42289;BME280;30230;47.520;19.016;2023-03-14T08:17:57;97874.72;;;11.43;50.51
42289;BME280;30230;47.520;19.016;2023-03-14T08:19:58;97870.53;;;11.52;50.04
42289;BME280;30230;47.520;19.016;2023-03-14T08:21:58;97867.91;;;11.57;50.68
42289;BME280;30230;47.520;19.016;2023-03-14T08:23:58;97874.09;;;11.69;51.57
42289;BME280;30230;47.520;19.016;2023-03-14T08:25:59;97870.66;;;11.74;50.08
42289;BME280;30230;47.520;19.016;2023-03-14T08:27:59;97882.31;;;11.91;50.06
42289;BME280;30230;47.520;19.016;2023-03-14T08:30:01;97875.09;;;12.14;49.66
42289;BME280;30230;47.520;19.016;2023-03-14T08:32:01;97862.25;;;12.43;48.05
42289;BME280;30230;47.520;19.016;2023-03-14T08:34:02;97866.16;;;12.52;48.19
42289;BME280;30230;47.520;19.016;2023-03-14T08:36:03;97868.50;;;12.65;48.25
42289;BME280;30230;47.520;19.016;2023-03-14T08:38:03;97865.69;;;12.77;47.91
42289;BME280;30230;47.520;19.016;2023-03-14T08:40:05;97862.25;;;13.09;47.17
42289;BME280;30230;47.520;19.016;2023-03-14T08:42:10;97848.97;;;13.29;46.59
42289;BME280;30230;47.520;19.016;2023-03-14T08:44:11;97853.47;;;13.45;46.41
42289;BME280;30230;47.520;19.016;2023-03-14T08:46:14;97850.72;;;13.72;46.06
42289;BME280;30230;47.520;19.016;2023-03-14T08:48:14;97844.28;;;13.84;45.18
42289;BME280;30230;47.520;19.016;2023-03-14T08:50:15;97839.00;;;14.04;44.71
42289;BME280;30230;47.520;19.016;2023-03-14T08:52:15;97835.59;;;14.19;44.18
42289;BME280;30230;47.520;19.016;2023-03-14T08:54:16;97821.31;;;14.39;44.23
42289;BME280;30230;47.520;19.016;2023-03-14T08:56:17;97820.06;;;14.56;43.46
42289;BME280;30230;47.520;19.016;2023-03-14T08:58:17;97825.00;;;14.65;43.75
42289;BME280;30230;47.520;19.016;2023-03-14T09:00:18;97823.06;;;14.60;42.91
42289;BME280;30230;47.520;19.016;2023-03-14T09:02:18;97810.34;;;14.71;44.00
42289;BME280;30230;47.520;19.016;2023-03-14T09:04:19;97805.22;;;14.79;42.97
42289;BME280;30230;47.520;19.016;2023-03-14T09:06:20;97802.25;;;14.86;43.75
42289;BME280;30230;47.520;19.016;2023-03-14T09:08:20;97811.75;;;14.94;42.73
42289;BME280;30230;47.520;19.016;2023-03-14T09:10:21;97804.72;;;14.98;43.12
42289;BME280;30230;47.520;19.016;2023-03-14T09:12:21;97814.81;;;15.13;41.90
42289;BME280;30230;47.520;19.016;2023-03-14T09:14:22;97787.88;;;15.06;41.84
42289;BME280;30230;47.520;19.016;2023-03-14T09:16:23;97803.69;;;15.24;41.03
42289;BME280;30230;47.520;19.016;2023-03-14T09:18:23;97795.78;;;15.18;41.96
42289;BME280;30230;47.520;19.016;2023-03-14T09:20:24;97792.28;;;15.27;41.10
42289;BME280;30230;47.520;19.016;2023-03-14T09:22:24;97795.03;;;15.43;41.20
42289;BME280;30230;47.520;19.016;2023-03-14T09:24:25;97799.94;;;15.56;41.25
42289;BME280;30230;47.520;19.016;2023-03-14T09:26:25;97780.88;;;15.51;41.24
42289;BME280;30230;47.520;19.016;2023-03-14T09:28:27;97791.53;;;15.68;40.98
42289;BME280;30230;47.520;19.016;2023-03-14T09:30:27;97779.53;;;15.74;40.83
42289;BME280;30230;47.520;19.016;2023-03-14T09:32:28;97774.91;;;15.89;41.05
42289;BME280;30230;47.520;19.016;2023-03-14T09:34:28;97789.31;;;16.00;40.54
42289;BME280;30230;47.520;19.016;2023-03-14T09:36:29;97782.25;;;15.89;40.66
42289;BME280;30230;47.520;19.016;2023-03-14T09:38:30;97782.50;;;16.03;40.92
42289;BME280;30230;47.520;19.016;2023-03-14T09:40:34;97778.97;;;15.97;40.75
42289;BME280;30230;47.520;19.016;2023-03-14T09:42:36;97774.31;;;16.18;40.65
42289;BME280;30230;47.520;19.016;2023-03-14T09:44:45;97769.38;;;16.25;40.11
42289;BME280;30230;47.520;19.016;2023-03-14T09:46:51;97755.19;;;16.38;40.94
42289;BME280;30230;47.520;19.016;2023-03-14T09:48:53;97749.41;;;16.45;40.21
42289;BME280;30230;47.520;19.016;2023-03-14T09:50:55;97750.78;;;16.37;39.58
42289;BME280;30230;47.520;19.016;2023-03-14T09:53:02;97751.59;;;16.38;40.03
42289;BME280;30230;47.520;19.016;2023-03-14T09:55:06;97738.81;;;16.38;40.35
42289;BME280;30230;47.520;19.016;2023-03-14T09:57:23;97737.69;;;16.50;40.08
42289;BME280;30230;47.520;19.016;2023-03-14T09:59:24;97728.94;;;16.48;40.05
42289;BME280;30230;47.520;19.016;2023-03-14T10:01:27;97730.22;;;16.71;40.44
42289;BME280;30230;47.520;19.016;2023-03-14T10:03:33;97710.88;;;16.67;39.91
42289;BME280;30230;47.520;19.016;2023-03-14T10:05:34;97721.22;;;16.70;39.59
42289;BME280;30230;47.520;19.016;2023-03-14T10:07:35;97701.59;;;16.68;39.84
42289;BME280;30230;47.520;19.016;2023-03-14T10:09:35;97715.78;;;16.70;39.98
42289;BME280;30230;47.520;19.016;2023-03-14T10:11:35;97698.31;;;16.76;39.77
42289;BME280;30230;47.520;19.016;2023-03-14T10:13:47;97715.03;;;17.04;39.64
42289;BME280;30230;47.520;19.016;2023-03-14T10:17:58;97699.19;;;17.11;39.53
42289;BME280;30230;47.520;19.016;2023-03-14T10:19:59;97700.84;;;17.41;39.09
42289;BME280;30230;47.520;19.016;2023-03-14T10:22:01;97700.84;;;17.70;36.95
42289;BME280;30230;47.520;19.016;2023-03-14T10:26:28;97679.59;;;18.20;36.19
42289;BME280;30230;47.520;19.016;2023-03-14T10:28:52;97670.72;;;18.28;36.26
42289;BME280;30230;47.520;19.016;2023-03-14T10:30:53;97687.94;;;18.29;35.77
42289;BME280;30230;47.520;19.016;2023-03-14T10:32:53;97684.25;;;18.38;35.82
42289;BME280;30230;47.520;19.016;2023-03-14T10:37:21;97687.78;;;18.20;35.95
42289;BME280;30230;47.520;19.016;2023-03-14T10:41:31;97668.13;;;18.18;36.54
42289;BME280;30230;47.520;19.016;2023-03-14T10:43:34;97676.72;;;18.30;36.39
42289;BME280;30230;47.520;19.016;2023-03-14T10:45:41;97659.41;;;18.16;35.82
42289;BME280;30230;47.520;19.016;2023-03-14T10:47:50;97661.13;;;18.31;36.08
42289;BME280;30230;47.520;19.016;2023-03-14T10:49:50;97663.41;;;18.23;36.12
42289;BME280;30230;47.520;19.016;2023-03-14T10:51:50;97643.50;;;17.99;36.26
42289;BME280;30230;47.520;19.016;2023-03-14T10:54:01;97651.59;;;18.28;36.33
42289;BME280;30230;47.520;19.016;2023-03-14T10:56:03;97634.50;;;18.17;35.75
42289;BME280;30230;47.520;19.016;2023-03-14T10:58:04;97646.88;;;18.34;36.20